sensor_id;sensor_type;location;lat;lon;timestamp;temperature;humidity
1686;DHT22;840;47.980;7.830;2022-11-23T00:01:19;9.00;99.90
1686;DHT22;840;47.980;7.830;2022-11-23T00:03:48;9.00;99.90
1686;DHT22;840;47.980;7.830;2022-11-23T00:06:15;9.00;99.90
1686;DHT22;840;47.980;7.830;2022-11-23T00:08:43;9.00;99.90
1686;DHT22;840;47.980;7.830;2022-11-23T00:11:10;9.00;99.90
1686;DHT22;840;47.980;7.830;2022-11-23T00:13:41;9.00;99.90
1686;DHT22;840;47.980;7.830;2022-11-23T00:16:10;9.00;99.90
1686;DHT22;840;47.980;7.830;2022-11-23T00:18:38;9.00;99.90
1686;DHT22;840;47.980;7.830;2022-11-23T00:21:06;9.00;99.90
1686;DHT22;840;47.980;7.830;2022-11-23T00:23:33;9.00;99.90
1686;DHT22;840;47.980;7.830;2022-11-23T00:26:01;9.00;99.90
1686;DHT22;840;47.980;7.830;2022-11-23T00:28:28;9.00;99.90
1686;DHT22;840;47.980;7.830;2022-11-23T00:30:57;9.00;99.90
1686;DHT22;840;47.980;7.830;2022-11-23T00:33:24;8.90;99.90
1686;DHT22;840;47.980;7.830;2022-11-23T00:35:58;8.90;99.90
1686;DHT22;840;47.980;7.830;2022-11-23T00:38:25;8.90;99.90
1686;DHT22;840;47.980;7.830;2022-11-23T00:40:58;8.90;99.90
1686;DHT22;840;47.980;7.830;2022-11-23T00:43:25;8.90;99.90
1686;DHT22;840;47.980;7.830;2022-11-23T00:46:03;8.90;99.90
1686;DHT22;840;47.980;7.830;2022-11-23T00:48:30;8.90;99.90
1686;DHT22;840;47.980;7.830;2022-11-23T00:50:59;8.90;99.90
1686;DHT22;840;47.980;7.830;2022-11-23T00:53:26;8.90;99.90
1686;DHT22;840;47.980;7.830;2022-11-23T00:55:53;8.90;99.90
1686;DHT22;840;47.980;7.830;2022-11-23T00:58:21;8.90;99.90
1686;DHT22;840;47.980;7.830;2022-11-23T01:00:48;9.00;99.90
1686;DHT22;840;47.980;7.830;2022-11-23T01:03:17;9.00;99.90
1686;DHT22;840;47.980;7.830;2022-11-23T01:05:44;9.00;99.90
1686;DHT22;840;47.980;7.830;2022-11-23T01:08:11;9.00;99.90
1686;DHT22;840;47.980;7.830;2022-11-23T01:10:38;9.00;99.90
1686;DHT22;840;47.980;7.830;2022-11-23T01:13:05;9.00;99.90
1686;DHT22;840;47.980;7.830;2022-11-23T01:15:32;9.10;99.90
1686;DHT22;840;47.980;7.830;2022-11-23T01:18:00;9.10;99.90
1686;DHT22;840;47.980;7.830;2022-11-23T01:20:28;9.10;99.90
1686;DHT22;840;47.980;7.830;2022-11-23T01:22:56;9.10;99.90
1686;DHT22;840;47.980;7.830;2022-11-23T01:25:22;9.10;99.90
1686;DHT22;840;47.980;7.830;2022-11-23T01:27:49;9.10;99.90
1686;DHT22;840;47.980;7.830;2022-11-23T01:30:17;9.10;99.90
1686;DHT22;840;47.980;7.830;2022-11-23T01:32:44;9.10;99.90
1686;DHT22;840;47.980;7.830;2022-11-23T01:35:11;9.00;99.90
1686;DHT22;840;47.980;7.830;2022-11-23T01:37:39;9.00;99.90
1686;DHT22;840;47.980;7.830;2022-11-23T01:40:07;9.00;99.90
1686;DHT22;840;47.980;7.830;2022-11-23T01:42:42;9.00;99.90
1686;DHT22;840;47.980;7.830;2022-11-23T01:45:31;9.00;99.90
1686;DHT22;840;47.980;7.830;2022-11-23T01:47:58;9.00;99.90
1686;DHT22;840;47.980;7.830;2022-11-23T01:50:26;8.90;99.90
1686;DHT22;840;47.980;7.830;2022-11-23T01:52:57;8.90;99.90
1686;DHT22;840;47.980;7.830;2022-11-23T01:55:25;8.90;99.90
1686;DHT22;840;47.980;7.830;2022-11-23T01:57:53;8.90;99.90
1686;DHT22;840;47.980;7.830;2022-11-23T02:00:21;8.90;99.90
1686;DHT22;840;47.980;7.830;2022-11-23T02:02:52;8.90;99.90
1686;DHT22;840;47.980;7.830;2022-11-23T02:05:22;8.90;99.90
1686;DHT22;840;47.980;7.830;2022-11-23T02:07:50;8.90;99.90
1686;DHT22;840;47.980;7.830;2022-11-23T02:10:20;8.80;99.90
1686;DHT22;840;47.980;7.830;2022-11-23T02:12:47;8.80;99.90
1686;DHT22;840;47.980;7.830;2022-11-23T02:15:14;8.80;99.90
1686;DHT22;840;47.980;7.830;2022-11-23T02:17:42;8.80;99.90
1686;DHT22;840;47.980;7.830;2022-11-23T02:20:10;8.80;99.90
1686;DHT22;840;47.980;7.830;2022-11-23T02:22:47;8.80;99.90
1686;DHT22;840;47.980;7.830;2022-11-23T02:25:26;8.80;99.90
1686;DHT22;840;47.980;7.830;2022-11-23T02:27:57;8.90;99.90
1686;DHT22;840;47.980;7.830;2022-11-23T02:30:24;8.80;99.90
1686;DHT22;840;47.980;7.830;2022-11-23T02:32:52;8.80;99.90
1686;DHT22;840;47.980;7.830;2022-11-23T02:35:19;8.90;99.90
1686;DHT22;840;47.980;7.830;2022-11-23T02:37:46;8.90;99.90
1686;DHT22;840;47.980;7.830;2022-11-23T02:40:22;8.90;99.90
1686;DHT22;840;47.980;7.830;2022-11-23T02:42:51;8.90;99.90
1686;DHT22;840;47.980;7.830;2022-11-23T02:45:24;8.90;99.90
1686;DHT22;840;47.980;7.830;2022-11-23T02:47:52;8.90;99.90
1686;DHT22;840;47.980;7.830;2022-11-23T02:50:19;8.90;99.90
1686;DHT22;840;47.980;7.830;2022-11-23T02:52:46;8.90;99.90
1686;DHT22;840;47.980;7.830;2022-11-23T02:55:13;9.00;99.90
1686;DHT22;840;47.980;7.830;2022-11-23T02:57:40;9.00;99.90
1686;DHT22;840;47.980;7.830;2022-11-23T03:00:08;9.00;99.90
1686;DHT22;840;47.980;7.830;2022-11-23T03:02:37;9.00;99.90
1686;DHT22;840;47.980;7.830;2022-11-23T03:05:04;9.00;99.90
1686;DHT22;840;47.980;7.830;2022-11-23T03:07:31;9.00;99.90
1686;DHT22;840;47.980;7.830;2022-11-23T03:09:58;9.00;99.90
1686;DHT22;840;47.980;7.830;2022-11-23T03:12:26;9.00;99.90
1686;DHT22;840;47.980;7.830;2022-11-23T03:14:53;9.10;99.90
1686;DHT22;840;47.980;7.830;2022-11-23T03:17:20;9.10;99.90
1686;DHT22;840;47.980;7.830;2022-11-23T03:19:48;9.10;99.90
1686;DHT22;840;47.980;7.830;2022-11-23T03:22:15;9.10;99.90
1686;DHT22;840;47.980;7.830;2022-11-23T03:24:42;9.10;99.90
1686;DHT22;840;47.980;7.830;2022-11-23T03:27:09;9.00;99.90
1686;DHT22;840;47.980;7.830;2022-11-23T03:29:37;9.00;99.90
1686;DHT22;840;47.980;7.830;2022-11-23T03:32:04;9.00;99.90
1686;DHT22;840;47.980;7.830;2022-11-23T03:34:34;8.90;99.90
1686;DHT22;840;47.980;7.830;2022-11-23T03:37:02;8.90;99.90
1686;DHT22;840;47.980;7.830;2022-11-23T03:39:30;8.90;99.90
1686;DHT22;840;47.980;7.830;2022-11-23T03:41:57;8.80;99.90
1686;DHT22;840;47.980;7.830;2022-11-23T03:44:25;8.80;99.90
1686;DHT22;840;47.980;7.830;2022-11-23T03:46:57;8.80;99.90
1686;DHT22;840;47.980;7.830;2022-11-23T03:49:24;8.80;99.90
1686;DHT22;840;47.980;7.830;2022-11-23T03:51:51;8.80;99.90
1686;DHT22;840;47.980;7.830;2022-11-23T03:54:19;8.80;99.90
1686;DHT22;840;47.980;7.830;2022-11-23T03:56:46;8.80;99.90
1686;DHT22;840;47.980;7.830;2022-11-23T03:59:13;8.80;99.90
1686;DHT22;840;47.980;7.830;2022-11-23T04:01:40;8.70;99.90
1686;DHT22;840;47.980;7.830;2022-11-23T04:04:07;8.70;99.90
1686;DHT22;840;47.980;7.830;2022-11-23T04:06:34;8.70;99.90
1686;DHT22;840;47.980;7.830;2022-11-23T04:09:03;8.60;99.90
1686;DHT22;840;47.980;7.830;2022-11-23T04:11:31;8.60;99.90
1686;DHT22;840;47.980;7.830;2022-11-23T04:13:58;8.60;99.90
1686;DHT22;840;47.980;7.830;2022-11-23T04:16:25;8.50;99.90
1686;DHT22;840;47.980;7.830;2022-11-23T04:18:52;8.50;99.90
1686;DHT22;840;47.980;7.830;2022-11-23T04:21:19;8.40;99.90
1686;DHT22;840;47.980;7.830;2022-11-23T04:23:46;8.40;99.90
1686;DHT22;840;47.980;7.830;2022-11-23T04:26:13;8.30;99.90
1686;DHT22;840;47.980;7.830;2022-11-23T04:28:41;8.30;99.90
1686;DHT22;840;47.980;7.830;2022-11-23T04:31:08;8.20;99.90
1686;DHT22;840;47.980;7.830;2022-11-23T04:33:35;8.20;99.90
1686;DHT22;840;47.980;7.830;2022-11-23T04:36:02;8.20;99.90
1686;DHT22;840;47.980;7.830;2022-11-23T04:38:29;8.10;99.90
1686;DHT22;840;47.980;7.830;2022-11-23T04:40:56;8.10;99.90
1686;DHT22;840;47.980;7.830;2022-11-23T04:43:23;8.00;99.90
1686;DHT22;840;47.980;7.830;2022-11-23T04:45:51;8.00;99.90
1686;DHT22;840;47.980;7.830;2022-11-23T04:48:19;7.90;99.90
1686;DHT22;840;47.980;7.830;2022-11-23T04:50:46;7.90;99.90
1686;DHT22;840;47.980;7.830;2022-11-23T04:53:13;7.80;99.90
1686;DHT22;840;47.980;7.830;2022-11-23T04:55:40;7.80;99.90
1686;DHT22;840;47.980;7.830;2022-11-23T04:58:07;7.70;99.90
1686;DHT22;840;47.980;7.830;2022-11-23T05:00:34;7.70;99.90
1686;DHT22;840;47.980;7.830;2022-11-23T05:03:02;7.60;99.90
1686;DHT22;840;47.980;7.830;2022-11-23T05:05:30;7.60;99.90
1686;DHT22;840;47.980;7.830;2022-11-23T05:07:57;7.60;99.90
1686;DHT22;840;47.980;7.830;2022-11-23T05:10:24;7.60;99.90
1686;DHT22;840;47.980;7.830;2022-11-23T05:12:51;7.60;99.90
1686;DHT22;840;47.980;7.830;2022-11-23T05:15:18;7.60;99.90
1686;DHT22;840;47.980;7.830;2022-11-23T05:17:46;7.60;99.90
1686;DHT22;840;47.980;7.830;2022-11-23T05:20:15;7.60;99.90
1686;DHT22;840;47.980;7.830;2022-11-23T05:22:42;7.50;99.90
1686;DHT22;840;47.980;7.830;2022-11-23T05:25:09;7.50;99.90
1686;DHT22;840;47.980;7.830;2022-11-23T05:27:36;7.50;99.90
1686;DHT22;840;47.980;7.830;2022-11-23T05:30:05;7.40;99.90
1686;DHT22;840;47.980;7.830;2022-11-23T05:32:32;7.40;99.90
1686;DHT22;840;47.980;7.830;2022-11-23T05:34:59;7.40;99.90
1686;DHT22;840;47.980;7.830;2022-11-23T05:37:27;7.40;99.90
1686;DHT22;840;47.980;7.830;2022-11-23T05:39:54;7.40;99.90
1686;DHT22;840;47.980;7.830;2022-11-23T05:42:21;7.30;99.90
1686;DHT22;840;47.980;7.830;2022-11-23T05:44:48;7.30;99.90
1686;DHT22;840;47.980;7.830;2022-11-23T05:47:15;7.30;99.90
1686;DHT22;840;47.980;7.830;2022-11-23T05:49:42;7.20;99.90
1686;DHT22;840;47.980;7.830;2022-11-23T05:52:08;7.20;99.90
1686;DHT22;840;47.980;7.830;2022-11-23T05:54:37;7.10;99.90
1686;DHT22;840;47.980;7.830;2022-11-23T05:57:04;7.00;99.90
1686;DHT22;840;47.980;7.830;2022-11-23T05:59:31;6.90;99.90
1686;DHT22;840;47.980;7.830;2022-11-23T06:01:58;6.90;99.90
1686;DHT22;840;47.980;7.830;2022-11-23T06:04:25;6.80;99.90
1686;DHT22;840;47.980;7.830;2022-11-23T06:06:52;6.80;99.90
1686;DHT22;840;47.980;7.830;2022-11-23T06:09:21;6.70;99.90
1686;DHT22;840;47.980;7.830;2022-11-23T06:11:49;6.60;99.90
1686;DHT22;840;47.980;7.830;2022-11-23T06:14:17;6.60;99.90
1686;DHT22;840;47.980;7.830;2022-11-23T06:16:44;6.60;99.90
1686;DHT22;840;47.980;7.830;2022-11-23T06:19:11;6.50;99.90
1686;DHT22;840;47.980;7.830;2022-11-23T06:21:37;6.50;99.90
1686;DHT22;840;47.980;7.830;2022-11-23T06:24:05;6.50;99.90
1686;DHT22;840;47.980;7.830;2022-11-23T06:26:32;6.50;99.90
1686;DHT22;840;47.980;7.830;2022-11-23T06:29:03;6.50;99.90
1686;DHT22;840;47.980;7.830;2022-11-23T06:31:43;6.50;99.90
1686;DHT22;840;47.980;7.830;2022-11-23T06:34:10;6.40;99.90
1686;DHT22;840;47.980;7.830;2022-11-23T06:36:37;6.40;99.90
1686;DHT22;840;47.980;7.830;2022-11-23T06:39:04;6.40;99.90
1686;DHT22;840;47.980;7.830;2022-11-23T06:41:31;6.30;99.90
1686;DHT22;840;47.980;7.830;2022-11-23T06:44:00;6.30;99.90
1686;DHT22;840;47.980;7.830;2022-11-23T06:46:27;6.30;99.90
1686;DHT22;840;47.980;7.830;2022-11-23T06:48:55;6.20;99.90
1686;DHT22;840;47.980;7.830;2022-11-23T06:51:21;6.20;99.90
1686;DHT22;840;47.980;7.830;2022-11-23T06:53:49;6.20;99.90
1686;DHT22;840;47.980;7.830;2022-11-23T06:56:16;6.20;99.90
1686;DHT22;840;47.980;7.830;2022-11-23T06:58:43;6.10;99.90
1686;DHT22;840;47.980;7.830;2022-11-23T07:01:12;6.10;99.90
1686;DHT22;840;47.980;7.830;2022-11-23T07:03:39;6.10;99.90
1686;DHT22;840;47.980;7.830;2022-11-23T07:06:07;6.10;99.90
1686;DHT22;840;47.980;7.830;2022-11-23T07:08:35;6.00;99.90
1686;DHT22;840;47.980;7.830;2022-11-23T07:11:04;6.00;99.90
1686;DHT22;840;47.980;7.830;2022-11-23T07:13:32;6.00;99.90
1686;DHT22;840;47.980;7.830;2022-11-23T07:15:58;5.90;99.90
1686;DHT22;840;47.980;7.830;2022-11-23T07:18:27;5.90;99.90
1686;DHT22;840;47.980;7.830;2022-11-23T07:20:57;5.90;99.90
1686;DHT22;840;47.980;7.830;2022-11-23T07:23:24;5.90;99.90
1686;DHT22;840;47.980;7.830;2022-11-23T07:25:52;5.90;99.90
1686;DHT22;840;47.980;7.830;2022-11-23T07:28:19;6.00;99.90
1686;DHT22;840;47.980;7.830;2022-11-23T07:30:49;6.00;99.90
1686;DHT22;840;47.980;7.830;2022-11-23T07:33:16;6.00;99.90
1686;DHT22;840;47.980;7.830;2022-11-23T07:35:44;6.00;99.90
1686;DHT22;840;47.980;7.830;2022-11-23T07:38:10;6.00;99.90
1686;DHT22;840;47.980;7.830;2022-11-23T07:40:38;6.00;99.90
1686;DHT22;840;47.980;7.830;2022-11-23T07:43:06;6.00;99.90
1686;DHT22;840;47.980;7.830;2022-11-23T07:45:33;6.00;99.90
1686;DHT22;840;47.980;7.830;2022-11-23T07:48:03;6.00;99.90
1686;DHT22;840;47.980;7.830;2022-11-23T07:50:30;6.10;99.90
1686;DHT22;840;47.980;7.830;2022-11-23T07:53:00;6.00;99.90
1686;DHT22;840;47.980;7.830;2022-11-23T07:55:28;6.10;99.90
1686;DHT22;840;47.980;7.830;2022-11-23T07:58:09;6.10;99.90
1686;DHT22;840;47.980;7.830;2022-11-23T08:00:36;6.10;99.90
1686;DHT22;840;47.980;7.830;2022-11-23T08:03:03;6.00;99.90
1686;DHT22;840;47.980;7.830;2022-11-23T08:05:31;6.10;99.90
1686;DHT22;840;47.980;7.830;2022-11-23T08:08:02;6.10;99.90
1686;DHT22;840;47.980;7.830;2022-11-23T08:10:30;6.10;99.90
1686;DHT22;840;47.980;7.830;2022-11-23T08:12:57;6.10;99.90
1686;DHT22;840;47.980;7.830;2022-11-23T08:15:24;6.20;99.90
1686;DHT22;840;47.980;7.830;2022-11-23T08:17:54;6.20;99.90
1686;DHT22;840;47.980;7.830;2022-11-23T08:20:21;6.20;99.90
1686;DHT22;840;47.980;7.830;2022-11-23T08:22:48;6.30;99.90
1686;DHT22;840;47.980;7.830;2022-11-23T08:25:16;6.30;99.90
1686;DHT22;840;47.980;7.830;2022-11-23T08:27:43;6.40;99.90
1686;DHT22;840;47.980;7.830;2022-11-23T08:30:11;6.40;99.90
1686;DHT22;840;47.980;7.830;2022-11-23T08:32:38;6.50;99.90
1686;DHT22;840;47.980;7.830;2022-11-23T08:35:06;6.60;99.90
1686;DHT22;840;47.980;7.830;2022-11-23T08:37:33;6.60;99.90
1686;DHT22;840;47.980;7.830;2022-11-23T08:40:00;6.60;99.90
1686;DHT22;840;47.980;7.830;2022-11-23T08:42:28;6.70;99.90
1686;DHT22;840;47.980;7.830;2022-11-23T08:44:55;6.70;99.90
1686;DHT22;840;47.980;7.830;2022-11-23T08:47:24;6.80;99.90
1686;DHT22;840;47.980;7.830;2022-11-23T08:49:54;6.80;99.90
1686;DHT22;840;47.980;7.830;2022-11-23T08:52:22;6.90;99.90
1686;DHT22;840;47.980;7.830;2022-11-23T08:54:50;6.90;99.90
1686;DHT22;840;47.980;7.830;2022-11-23T08:57:16;7.00;99.90
1686;DHT22;840;47.980;7.830;2022-11-23T08:59:45;7.00;99.90
1686;DHT22;840;47.980;7.830;2022-11-23T09:02:12;7.10;99.90
1686;DHT22;840;47.980;7.830;2022-11-23T09:04:40;7.20;99.90
1686;DHT22;840;47.980;7.830;2022-11-23T09:07:07;7.20;99.90
1686;DHT22;840;47.980;7.830;2022-11-23T09:09:34;7.30;99.90
1686;DHT22;840;47.980;7.830;2022-11-23T09:12:02;7.30;99.90
1686;DHT22;840;47.980;7.830;2022-11-23T09:14:29;7.40;99.90
1686;DHT22;840;47.980;7.830;2022-11-23T09:16:59;7.50;99.90
1686;DHT22;840;47.980;7.830;2022-11-23T09:19:26;7.50;99.90
1686;DHT22;840;47.980;7.830;2022-11-23T09:21:56;7.60;99.90
1686;DHT22;840;47.980;7.830;2022-11-23T09:24:23;7.70;99.90
1686;DHT22;840;47.980;7.830;2022-11-23T09:26:52;7.80;99.90
1686;DHT22;840;47.980;7.830;2022-11-23T09:29:19;7.80;99.90
1686;DHT22;840;47.980;7.830;2022-11-23T09:31:46;7.90;99.90
1686;DHT22;840;47.980;7.830;2022-11-23T09:34:14;8.00;99.90
1686;DHT22;840;47.980;7.830;2022-11-23T09:36:41;8.00;99.90
1686;DHT22;840;47.980;7.830;2022-11-23T09:39:10;8.10;99.90
1686;DHT22;840;47.980;7.830;2022-11-23T09:41:59;8.20;99.90
1686;DHT22;840;47.980;7.830;2022-11-23T09:44:35;8.30;99.90
1686;DHT22;840;47.980;7.830;2022-11-23T09:47:17;8.30;99.90
1686;DHT22;840;47.980;7.830;2022-11-23T09:49:58;8.40;99.90
1686;DHT22;840;47.980;7.830;2022-11-23T09:52:28;8.40;99.90
1686;DHT22;840;47.980;7.830;2022-11-23T09:54:58;8.40;99.90
1686;DHT22;840;47.980;7.830;2022-11-23T09:57:29;8.50;99.90
1686;DHT22;840;47.980;7.830;2022-11-23T10:00:00;8.50;99.90
1686;DHT22;840;47.980;7.830;2022-11-23T10:02:32;8.60;99.90
1686;DHT22;840;47.980;7.830;2022-11-23T10:05:03;8.70;99.90
1686;DHT22;840;47.980;7.830;2022-11-23T10:07:46;8.70;99.90
1686;DHT22;840;47.980;7.830;2022-11-23T10:10:29;8.80;99.90
1686;DHT22;840;47.980;7.830;2022-11-23T10:13:06;8.80;99.90
1686;DHT22;840;47.980;7.830;2022-11-23T10:15:41;8.90;99.90
1686;DHT22;840;47.980;7.830;2022-11-23T10:18:25;9.00;99.90
1686;DHT22;840;47.980;7.830;2022-11-23T10:21:01;9.00;99.90
1686;DHT22;840;47.980;7.830;2022-11-23T10:23:42;9.00;99.90
1686;DHT22;840;47.980;7.830;2022-11-23T10:26:15;9.10;99.90
1686;DHT22;840;47.980;7.830;2022-11-23T10:28:44;9.10;99.90
1686;DHT22;840;47.980;7.830;2022-11-23T10:31:14;9.20;99.90
1686;DHT22;840;47.980;7.830;2022-11-23T10:33:48;9.20;99.90
1686;DHT22;840;47.980;7.830;2022-11-23T10:36:18;9.20;99.90
1686;DHT22;840;47.980;7.830;2022-11-23T10:38:47;9.20;99.90
1686;DHT22;840;47.980;7.830;2022-11-23T10:41:15;9.20;99.90
1686;DHT22;840;47.980;7.830;2022-11-23T10:43:45;9.30;99.90
1686;DHT22;840;47.980;7.830;2022-11-23T10:46:31;9.30;99.90
1686;DHT22;840;47.980;7.830;2022-11-23T10:49:17;9.40;99.90
1686;DHT22;840;47.980;7.830;2022-11-23T10:51:53;9.50;99.90
1686;DHT22;840;47.980;7.830;2022-11-23T10:54:26;9.50;99.90
1686;DHT22;840;47.980;7.830;2022-11-23T10:56:55;9.50;99.90
1686;DHT22;840;47.980;7.830;2022-11-23T10:59:40;9.60;99.90
1686;DHT22;840;47.980;7.830;2022-11-23T11:02:16;9.60;99.90
1686;DHT22;840;47.980;7.830;2022-11-23T11:04:44;9.70;99.90
1686;DHT22;840;47.980;7.830;2022-11-23T11:07:22;9.70;99.90
1686;DHT22;840;47.980;7.830;2022-11-23T11:09:51;9.80;99.90
1686;DHT22;840;47.980;7.830;2022-11-23T11:12:18;9.80;99.90
1686;DHT22;840;47.980;7.830;2022-11-23T11:14:57;9.90;99.90
1686;DHT22;840;47.980;7.830;2022-11-23T11:17:28;9.90;99.90
1686;DHT22;840;47.980;7.830;2022-11-23T11:19:56;9.90;99.90
1686;DHT22;840;47.980;7.830;2022-11-23T11:22:32;10.00;99.90
1686;DHT22;840;47.980;7.830;2022-11-23T11:25:02;10.00;99.90
1686;DHT22;840;47.980;7.830;2022-11-23T11:27:31;10.10;99.90
1686;DHT22;840;47.980;7.830;2022-11-23T11:30:03;10.10;99.90
1686;DHT22;840;47.980;7.830;2022-11-23T11:32:39;10.20;99.90
1686;DHT22;840;47.980;7.830;2022-11-23T11:35:14;10.30;99.90
1686;DHT22;840;47.980;7.830;2022-11-23T11:37:45;10.40;99.90
1686;DHT22;840;47.980;7.830;2022-11-23T11:40:18;10.50;99.90
1686;DHT22;840;47.980;7.830;2022-11-23T11:42:51;10.50;99.90
1686;DHT22;840;47.980;7.830;2022-11-23T11:45:23;10.60;99.90
1686;DHT22;840;47.980;7.830;2022-11-23T11:47:56;10.70;99.90
1686;DHT22;840;47.980;7.830;2022-11-23T11:50:28;10.80;99.90
1686;DHT22;840;47.980;7.830;2022-11-23T11:53:01;10.90;99.90
1686;DHT22;840;47.980;7.830;2022-11-23T11:55:43;10.90;99.90
1686;DHT22;840;47.980;7.830;2022-11-23T11:58:15;11.00;99.90
1686;DHT22;840;47.980;7.830;2022-11-23T12:00:43;11.00;99.90
1686;DHT22;840;47.980;7.830;2022-11-23T12:03:18;11.00;99.90
1686;DHT22;840;47.980;7.830;2022-11-23T12:05:50;11.00;99.90
1686;DHT22;840;47.980;7.830;2022-11-23T12:08:21;11.10;99.90
1686;DHT22;840;47.980;7.830;2022-11-23T12:10:52;11.10;99.90
1686;DHT22;840;47.980;7.830;2022-11-23T12:13:21;11.10;99.90
1686;DHT22;840;47.980;7.830;2022-11-23T12:15:54;11.20;99.90
1686;DHT22;840;47.980;7.830;2022-11-23T12:18:52;11.20;99.90
1686;DHT22;840;47.980;7.830;2022-11-23T12:21:34;11.20;99.90
1686;DHT22;840;47.980;7.830;2022-11-23T12:24:09;11.30;99.90
1686;DHT22;840;47.980;7.830;2022-11-23T12:26:49;11.30;99.90
1686;DHT22;840;47.980;7.830;2022-11-23T12:29:41;11.30;99.90
1686;DHT22;840;47.980;7.830;2022-11-23T12:32:19;11.40;99.90
1686;DHT22;840;47.980;7.830;2022-11-23T12:35:10;11.40;99.90
1686;DHT22;840;47.980;7.830;2022-11-23T12:37:47;11.40;99.90
1686;DHT22;840;47.980;7.830;2022-11-23T12:40:39;11.50;99.90
1686;DHT22;840;47.980;7.830;2022-11-23T12:43:12;11.50;99.90
1686;DHT22;840;47.980;7.830;2022-11-23T12:45:55;11.60;99.90
1686;DHT22;840;47.980;7.830;2022-11-23T12:48:33;11.60;99.90
1686;DHT22;840;47.980;7.830;2022-11-23T12:51:12;11.60;99.90
1686;DHT22;840;47.980;7.830;2022-11-23T12:53:48;11.70;99.90
1686;DHT22;840;47.980;7.830;2022-11-23T12:56:33;11.80;99.90
1686;DHT22;840;47.980;7.830;2022-11-23T12:59:04;11.90;99.90
1686;DHT22;840;47.980;7.830;2022-11-23T13:01:33;11.90;99.90
1686;DHT22;840;47.980;7.830;2022-11-23T13:04:19;12.00;99.90
1686;DHT22;840;47.980;7.830;2022-11-23T13:07:12;12.00;99.90
1686;DHT22;840;47.980;7.830;2022-11-23T13:10:00;12.10;99.90
1686;DHT22;840;47.980;7.830;2022-11-23T13:12:44;12.10;99.90
1686;DHT22;840;47.980;7.830;2022-11-23T13:15:24;12.20;99.90
1686;DHT22;840;47.980;7.830;2022-11-23T13:18:02;12.20;99.90
1686;DHT22;840;47.980;7.830;2022-11-23T13:20:58;12.20;99.90
1686;DHT22;840;47.980;7.830;2022-11-23T13:23:33;12.20;99.90
1686;DHT22;840;47.980;7.830;2022-11-23T13:26:15;12.20;99.90
1686;DHT22;840;47.980;7.830;2022-11-23T13:28:45;12.20;99.90
1686;DHT22;840;47.980;7.830;2022-11-23T13:31:22;12.20;99.90
1686;DHT22;840;47.980;7.830;2022-11-23T13:33:51;12.20;99.90
1686;DHT22;840;47.980;7.830;2022-11-23T13:36:39;12.30;99.90
1686;DHT22;840;47.980;7.830;2022-11-23T13:42:30;12.40;99.90
1686;DHT22;840;47.980;7.830;2022-11-23T13:48:13;12.50;99.90
1686;DHT22;840;47.980;7.830;2022-11-23T13:50:58;12.50;99.90
1686;DHT22;840;47.980;7.830;2022-11-23T13:53:29;12.50;99.90
1686;DHT22;840;47.980;7.830;2022-11-23T13:56:20;12.50;99.90
1686;DHT22;840;47.980;7.830;2022-11-23T13:58:52;12.50;99.90
1686;DHT22;840;47.980;7.830;2022-11-23T14:01:57;12.50;99.90
1686;DHT22;840;47.980;7.830;2022-11-23T14:04:26;12.40;99.90
1686;DHT22;840;47.980;7.830;2022-11-23T14:06:57;12.40;99.90
1686;DHT22;840;47.980;7.830;2022-11-23T14:09:32;12.30;99.90
1686;DHT22;840;47.980;7.830;2022-11-23T14:12:07;12.30;99.90
1686;DHT22;840;47.980;7.830;2022-11-23T14:14:47;12.30;99.90
1686;DHT22;840;47.980;7.830;2022-11-23T14:23:44;12.20;99.90
1686;DHT22;840;47.980;7.830;2022-11-23T14:26:20;12.10;99.90
1686;DHT22;840;47.980;7.830;2022-11-23T14:28:58;12.10;99.90
1686;DHT22;840;47.980;7.830;2022-11-23T14:31:36;12.10;99.90
1686;DHT22;840;47.980;7.830;2022-11-23T14:34:16;12.10;99.90
1686;DHT22;840;47.980;7.830;2022-11-23T14:36:53;12.10;99.90
1686;DHT22;840;47.980;7.830;2022-11-23T14:39:51;12.10;99.90
1686;DHT22;840;47.980;7.830;2022-11-23T14:42:25;12.00;99.90
1686;DHT22;840;47.980;7.830;2022-11-23T14:44:53;12.00;99.90
1686;DHT22;840;47.980;7.830;2022-11-23T14:47:26;12.00;99.90
1686;DHT22;840;47.980;7.830;2022-11-23T14:49:53;12.00;99.90
1686;DHT22;840;47.980;7.830;2022-11-23T14:52:21;12.00;99.90
1686;DHT22;840;47.980;7.830;2022-11-23T14:54:52;12.00;99.90
1686;DHT22;840;47.980;7.830;2022-11-23T14:57:22;12.00;99.90
1686;DHT22;840;47.980;7.830;2022-11-23T14:59:53;12.00;99.90
1686;DHT22;840;47.980;7.830;2022-11-23T15:02:24;11.90;99.90
1686;DHT22;840;47.980;7.830;2022-11-23T15:04:58;11.90;99.90
1686;DHT22;840;47.980;7.830;2022-11-23T15:07:39;11.90;99.90
1686;DHT22;840;47.980;7.830;2022-11-23T15:10:18;11.90;99.90
1686;DHT22;840;47.980;7.830;2022-11-23T15:12:49;11.90;99.90
1686;DHT22;840;47.980;7.830;2022-11-23T15:15:17;11.80;99.90
1686;DHT22;840;47.980;7.830;2022-11-23T15:17:52;11.80;99.90
1686;DHT22;840;47.980;7.830;2022-11-23T15:20:20;11.80;99.90
1686;DHT22;840;47.980;7.830;2022-11-23T15:22:48;11.70;99.90
1686;DHT22;840;47.980;7.830;2022-11-23T15:25:16;11.70;99.90
1686;DHT22;840;47.980;7.830;2022-11-23T15:27:45;11.70;99.90
1686;DHT22;840;47.980;7.830;2022-11-23T15:30:19;11.60;99.90
1686;DHT22;840;47.980;7.830;2022-11-23T15:32:56;11.60;99.90
1686;DHT22;840;47.980;7.830;2022-11-23T15:35:28;11.50;99.90
1686;DHT22;840;47.980;7.830;2022-11-23T15:37:56;11.50;99.90
1686;DHT22;840;47.980;7.830;2022-11-23T15:40:28;11.40;99.90
1686;DHT22;840;47.980;7.830;2022-11-23T15:42:56;11.30;99.90
1686;DHT22;840;47.980;7.830;2022-11-23T15:45:37;11.20;99.90
1686;DHT22;840;47.980;7.830;2022-11-23T15:48:10;11.20;99.90
1686;DHT22;840;47.980;7.830;2022-11-23T15:50:49;11.10;99.90
1686;DHT22;840;47.980;7.830;2022-11-23T15:53:19;11.10;99.90
1686;DHT22;840;47.980;7.830;2022-11-23T15:55:48;11.00;99.90
1686;DHT22;840;47.980;7.830;2022-11-23T15:58:16;10.90;99.90
1686;DHT22;840;47.980;7.830;2022-11-23T16:00:48;10.90;99.90
1686;DHT22;840;47.980;7.830;2022-11-23T16:03:30;10.80;99.90
1686;DHT22;840;47.980;7.830;2022-11-23T16:06:13;10.70;99.90
1686;DHT22;840;47.980;7.830;2022-11-23T16:08:41;10.60;99.90
1686;DHT22;840;47.980;7.830;2022-11-23T16:11:21;10.50;99.90
1686;DHT22;840;47.980;7.830;2022-11-23T16:13:48;10.40;99.90
1686;DHT22;840;47.980;7.830;2022-11-23T16:16:17;10.40;99.90
1686;DHT22;840;47.980;7.830;2022-11-23T16:18:47;10.30;99.90
1686;DHT22;840;47.980;7.830;2022-11-23T16:21:18;10.30;99.90
1686;DHT22;840;47.980;7.830;2022-11-23T16:23:48;10.30;99.90
1686;DHT22;840;47.980;7.830;2022-11-23T16:26:16;10.30;99.90
1686;DHT22;840;47.980;7.830;2022-11-23T16:28:49;10.20;99.90
1686;DHT22;840;47.980;7.830;2022-11-23T16:31:27;10.20;99.90
1686;DHT22;840;47.980;7.830;2022-11-23T16:33:55;10.20;99.90
1686;DHT22;840;47.980;7.830;2022-11-23T16:36:25;10.10;99.90
1686;DHT22;840;47.980;7.830;2022-11-23T16:38:52;10.10;99.90
1686;DHT22;840;47.980;7.830;2022-11-23T16:41:19;10.10;99.90
1686;DHT22;840;47.980;7.830;2022-11-23T16:43:52;10.10;99.90
1686;DHT22;840;47.980;7.830;2022-11-23T16:46:19;10.10;99.90
1686;DHT22;840;47.980;7.830;2022-11-23T16:48:46;10.10;99.90
1686;DHT22;840;47.980;7.830;2022-11-23T16:51:13;10.10;99.90
1686;DHT22;840;47.980;7.830;2022-11-23T16:53:42;10.10;99.90
1686;DHT22;840;47.980;7.830;2022-11-23T16:56:13;10.10;99.90
1686;DHT22;840;47.980;7.830;2022-11-23T16:58:42;10.10;99.90
1686;DHT22;840;47.980;7.830;2022-11-23T17:01:18;10.10;99.90
1686;DHT22;840;47.980;7.830;2022-11-23T17:03:45;10.00;99.90
1686;DHT22;840;47.980;7.830;2022-11-23T17:06:13;10.00;99.90